createdAt,value
2019-02-20T00:00:06.217Z,0.64
2019-02-20T00:02:34.644Z,0.75
2019-02-20T00:05:03.100Z,0.82
2019-02-20T00:07:31.612Z,0.54
2019-02-20T00:10:00.030Z,0.82
2019-02-20T00:12:28.485Z,0.58
2019-02-20T00:14:57.272Z,0.45
2019-02-20T00:17:25.784Z,0.37
2019-02-20T00:19:54.230Z,0.37
2019-02-20T00:22:22.650Z,0.19
2019-02-20T00:24:51.073Z,0.29
2019-02-20T00:27:19.538Z,0.19
2019-02-20T00:29:47.962Z,0.28
2019-02-20T00:32:16.722Z,0.21
2019-02-20T00:34:45.516Z,0.14
2019-02-20T00:37:13.930Z,0.10
2019-02-20T00:39:42.361Z,0.11
2019-02-20T00:42:10.808Z,0.14
2019-02-20T00:44:40.870Z,0.10
2019-02-20T00:47:29.315Z,0.10
2019-02-20T00:49:57.734Z,0.16
2019-02-20T00:52:33.355Z,0.10
2019-02-20T00:55:02.136Z,-0.01
2019-02-20T00:57:30.562Z,-0.04
2019-02-20T00:59:59.306Z,-0.13
2019-02-20T01:02:27.915Z,-0.04
2019-02-20T01:04:56.340Z,-0.02
2019-02-20T01:07:24.770Z,-0.26
2019-02-20T01:09:53.329Z,-0.29
2019-02-20T01:12:22.324Z,-0.29
2019-02-20T01:14:50.752Z,-0.36
2019-02-20T01:17:19.240Z,-0.37
2019-02-20T01:19:48.009Z,-0.31
2019-02-20T01:22:16.420Z,-0.30
2019-02-20T01:24:44.876Z,-0.40
2019-02-20T01:27:13.623Z,-0.44
2019-02-20T01:29:42.047Z,-0.55
2019-02-20T01:32:10.584Z,-0.52
2019-02-20T01:34:39.008Z,-0.47
2019-02-20T01:37:07.439Z,-0.42
2019-02-20T01:39:35.979Z,-0.38
2019-02-20T01:42:04.497Z,-0.44
2019-02-20T01:44:32.922Z,-0.42
2019-02-20T01:47:01.452Z,-0.49
2019-02-20T01:49:29.890Z,-0.45
2019-02-20T01:51:58.315Z,-0.53
2019-02-20T01:54:26.768Z,-0.46
2019-02-20T01:56:57.178Z,-0.55
2019-02-20T01:59:25.341Z,-0.69
2019-02-20T02:01:53.792Z,-0.71
2019-02-20T02:04:22.235Z,-0.55
2019-02-20T02:06:51.001Z,-0.71
2019-02-20T02:09:19.854Z,-0.80
2019-02-20T02:11:48.283Z,-0.59
2019-02-20T02:14:16.709Z,-0.65
2019-02-20T02:16:45.180Z,-0.81
2019-02-20T02:19:13.881Z,-0.77
2019-02-20T02:21:42.314Z,-0.73
2019-02-20T02:24:10.876Z,-0.55
2019-02-20T02:26:39.308Z,-0.78
2019-02-20T02:29:07.735Z,-0.72
2019-02-20T02:31:36.198Z,-0.59
2019-02-20T02:34:05.565Z,-0.79
2019-02-20T02:36:34.081Z,-0.78
2019-02-20T02:39:02.616Z,-0.74
2019-02-20T02:41:31.332Z,-0.95
2019-02-20T02:43:59.755Z,-0.95
2019-02-20T02:46:28.208Z,-0.88
2019-02-20T02:48:56.637Z,-0.90
2019-02-20T02:51:25.059Z,-0.79
2019-02-20T02:53:53.518Z,-0.79
2019-02-20T02:56:21.945Z,-0.80
2019-02-20T02:58:50.463Z,-0.95
2019-02-20T03:01:18.937Z,-1.03
2019-02-20T03:03:47.375Z,-1.02
2019-02-20T03:06:15.879Z,-1.01
2019-02-20T03:08:44.419Z,-1.07
2019-02-20T03:11:12.866Z,-1.06
2019-02-20T03:13:41.292Z,-1.01
2019-02-20T03:16:09.747Z,-0.99
2019-02-20T03:18:38.171Z,-0.78
2019-02-20T03:21:06.666Z,-0.70
2019-02-20T03:23:40.138Z,-0.77
2019-02-20T03:26:05.720Z,-0.78
2019-02-20T03:28:34.108Z,-0.81
2019-02-20T03:31:02.570Z,-0.83
2019-02-20T03:33:31.011Z,-0.84
2019-02-20T03:35:59.537Z,-0.93
2019-02-20T03:38:30.604Z,-0.93
2019-02-20T03:40:58.391Z,-0.97
2019-02-20T03:43:26.917Z,-1.09
2019-02-20T03:45:55.385Z,-1.23
2019-02-20T03:48:23.808Z,-1.10
2019-02-20T03:50:52.234Z,-1.21
2019-02-20T03:53:20.685Z,-1.40
2019-02-20T03:55:49.462Z,-1.21
2019-02-20T03:58:18.151Z,-1.28
2019-02-20T04:00:46.663Z,-1.23
2019-02-20T04:03:15.094Z,-1.27
2019-02-20T04:05:43.510Z,-1.39
2019-02-20T04:08:11.976Z,-1.32
2019-02-20T04:10:40.410Z,-1.38
2019-02-20T04:13:08.847Z,-1.35
2019-02-20T04:15:37.451Z,-1.32
2019-02-20T04:18:05.880Z,-1.28
2019-02-20T04:20:34.304Z,-1.28
2019-02-20T04:23:02.784Z,-1.34
2019-02-20T04:25:32.027Z,-1.10
2019-02-20T04:28:00.528Z,-1.20
2019-02-20T04:30:29.944Z,-1.16
2019-02-20T04:32:58.619Z,-1.25
2019-02-20T04:35:27.176Z,-1.18
2019-02-20T04:37:55.627Z,-1.34
2019-02-20T04:40:24.123Z,-1.41
2019-02-20T04:42:52.547Z,-1.40
2019-02-20T04:45:21.029Z,-1.33
2019-02-20T04:47:49.461Z,-1.50
2019-02-20T04:50:17.898Z,-1.38
2019-02-20T04:52:46.364Z,-1.31
2019-02-20T04:55:14.767Z,-1.50
2019-02-20T04:57:43.194Z,-1.48
2019-02-20T05:00:14.004Z,-1.37
2019-02-20T05:02:42.502Z,-1.38
2019-02-20T05:05:10.992Z,-1.31
2019-02-20T05:07:39.868Z,-1.34
2019-02-20T05:10:10.133Z,-1.32
2019-02-20T05:12:38.556Z,-1.28
2019-02-20T05:15:07.459Z,-1.15
2019-02-20T05:17:35.976Z,-1.15
2019-02-20T05:20:06.662Z,-1.27
2019-02-20T05:22:35.207Z,-1.30
2019-02-20T05:25:03.806Z,-1.25
2019-02-20T05:27:32.225Z,-1.07
2019-02-20T05:30:00.693Z,-1.06
2019-02-20T05:32:29.116Z,-0.90
2019-02-20T05:34:57.564Z,-0.90
2019-02-20T05:37:25.997Z,-0.96
2019-02-20T05:39:54.449Z,-1.03
2019-02-20T05:42:22.860Z,-0.91
2019-02-20T05:44:51.511Z,-0.90
2019-02-20T05:47:19.993Z,-0.93
2019-02-20T05:49:48.381Z,-0.90
2019-02-20T05:52:16.961Z,-1.03
2019-02-20T05:54:45.682Z,-1.06
2019-02-20T05:57:14.457Z,-0.96
2019-02-20T05:59:43.181Z,-0.93
2019-02-20T06:02:11.611Z,-1.02
2019-02-20T06:04:40.039Z,-0.88
2019-02-20T06:07:09.067Z,-0.90
2019-02-20T06:09:37.585Z,-0.92
2019-02-20T06:12:06.012Z,-0.91
2019-02-20T06:14:34.747Z,-0.79
2019-02-20T06:17:03.254Z,-0.71
2019-02-20T06:19:31.791Z,-0.78
2019-02-20T06:22:00.329Z,-0.79
2019-02-20T06:24:28.763Z,-0.76
2019-02-20T06:26:57.189Z,-0.74
2019-02-20T06:29:25.648Z,-0.99
2019-02-20T06:31:54.078Z,-0.97
2019-02-20T06:34:22.502Z,-0.93
2019-02-20T06:36:50.981Z,-0.92
2019-02-20T06:39:19.410Z,-0.98
2019-02-20T06:41:48.269Z,-1.02
2019-02-20T06:44:16.824Z,-1.02
2019-02-20T06:46:45.260Z,-1.03
2019-02-20T06:49:13.685Z,-1.03
2019-02-20T06:51:42.152Z,-1.06
2019-02-20T06:54:10.576Z,-0.97
2019-02-20T06:56:39.004Z,-0.95
2019-02-20T06:59:07.560Z,-0.94
2019-02-20T07:01:35.988Z,-0.90
2019-02-20T07:04:04.656Z,-0.79
2019-02-20T07:06:57.685Z,-0.66
2019-02-20T07:09:34.766Z,-0.63
2019-02-20T07:12:18.498Z,-0.58
2019-02-20T07:15:09.482Z,-0.52
2019-02-20T07:17:46.703Z,-0.21
2019-02-20T07:20:24.025Z,0.01
2019-02-20T07:23:17.305Z,-0.04
2019-02-20T07:25:51.391Z,0.03
2019-02-20T07:28:56.244Z,0.18
2019-02-20T07:31:24.755Z,0.30
2019-02-20T07:33:53.179Z,0.40
2019-02-20T07:36:22.000Z,0.43
2019-02-20T07:38:50.434Z,0.50
2019-02-20T07:41:18.970Z,0.52
2019-02-20T07:43:47.434Z,0.51
2019-02-20T07:46:15.866Z,0.63
2019-02-20T07:48:44.609Z,0.76
2019-02-20T07:51:14.891Z,0.86
2019-02-20T07:53:43.415Z,0.95
2019-02-20T07:56:11.843Z,0.98
2019-02-20T07:58:40.321Z,1.01
2019-02-20T08:01:08.843Z,1.08
2019-02-20T08:03:37.280Z,1.19
2019-02-20T08:06:05.745Z,1.32
2019-02-20T08:08:34.177Z,1.43
2019-02-20T08:11:02.615Z,1.53
2019-02-20T08:13:39.056Z,1.71
2019-02-20T08:16:01.336Z,1.87
2019-02-20T08:18:29.866Z,2.04
2019-02-20T08:20:58.676Z,2.23
2019-02-20T08:23:27.110Z,2.75
2019-02-20T08:25:55.536Z,2.88
2019-02-20T08:28:24.329Z,2.96
2019-02-20T08:30:52.762Z,2.94
2019-02-20T08:33:21.194Z,3.01
2019-02-20T08:35:49.952Z,3.01
2019-02-20T08:38:18.400Z,3.04
2019-02-20T08:40:46.833Z,3.25
2019-02-20T08:43:15.361Z,3.44
2019-02-20T08:45:43.749Z,3.45
2019-02-20T08:48:12.180Z,3.49
2019-02-20T08:50:40.636Z,3.55
2019-02-20T08:53:09.427Z,3.67
2019-02-20T08:55:38.031Z,3.75
2019-02-20T08:58:06.897Z,3.78
2019-02-20T09:00:35.609Z,3.91
2019-02-20T09:03:04.372Z,4.05
2019-02-20T09:05:34.247Z,3.98
2019-02-20T09:08:02.960Z,4.19
2019-02-20T09:10:31.395Z,4.38
2019-02-20T09:12:59.865Z,4.48
2019-02-20T09:15:28.389Z,4.45
2019-02-20T09:17:56.821Z,4.64
2019-02-20T09:20:25.366Z,4.75
2019-02-20T09:22:53.796Z,4.68
2019-02-20T09:25:22.236Z,4.87
2019-02-20T09:27:50.809Z,4.91
2019-02-20T09:30:28.052Z,5.08
2019-02-20T09:32:49.732Z,5.34
2019-02-20T09:35:18.309Z,5.46
2019-02-20T09:37:46.748Z,5.74
2019-02-20T09:40:18.768Z,5.74
2019-02-20T09:42:49.932Z,5.86
2019-02-20T09:45:18.365Z,5.92
2019-02-20T09:47:46.883Z,6.02
2019-02-20T09:50:15.497Z,6.24
2019-02-20T09:52:51.909Z,6.21
2019-02-20T09:55:14.717Z,6.38
2019-02-20T09:57:43.312Z,6.50
2019-02-20T10:00:16.855Z,6.62
2019-02-20T10:02:47.213Z,6.64
2019-02-20T10:05:16.065Z,6.67
2019-02-20T10:07:44.870Z,6.72
2019-02-20T10:10:13.714Z,6.86
2019-02-20T10:12:42.333Z,6.78
2019-02-20T10:15:18.796Z,6.84
2019-02-20T10:17:47.264Z,6.92
2019-02-20T10:20:15.730Z,6.94
2019-02-20T10:22:44.166Z,7.09
2019-02-20T10:25:13.786Z,7.27
2019-02-20T10:27:42.220Z,7.42
2019-02-20T10:30:50.595Z,7.53
2019-02-20T10:33:19.025Z,7.51
2019-02-20T10:35:47.457Z,7.64
2019-02-20T10:38:15.908Z,7.78
2019-02-20T10:40:44.336Z,7.76
2019-02-20T10:43:12.767Z,7.91
2019-02-20T10:45:41.250Z,7.96
2019-02-20T10:48:29.041Z,8.10
2019-02-20T10:50:57.883Z,8.17
2019-02-20T10:53:26.401Z,8.62
2019-02-20T10:55:55.129Z,8.58
2019-02-20T10:58:23.584Z,8.47
2019-02-20T11:01:11.333Z,8.54
2019-02-20T11:03:39.808Z,8.90
2019-02-20T11:06:27.486Z,8.98
2019-02-20T11:08:56.040Z,9.19
2019-02-20T11:11:24.568Z,9.10
2019-02-20T11:13:52.996Z,9.23
2019-02-20T11:16:21.467Z,9.41
2019-02-20T11:18:49.897Z,9.33
2019-02-20T11:21:18.329Z,9.52
2019-02-20T11:23:46.791Z,9.55
2019-02-20T11:26:18.279Z,9.67
2019-02-20T11:28:45.369Z,9.87
2019-02-20T11:31:14.143Z,9.74
2019-02-20T11:33:42.900Z,9.69
2019-02-20T11:36:30.780Z,9.82
2019-02-20T11:39:18.884Z,9.66
2019-02-20T11:41:47.341Z,9.71
2019-02-20T11:44:21.060Z,9.77
2019-02-20T11:46:45.930Z,9.76
2019-02-20T11:49:14.384Z,9.90
2019-02-20T11:51:42.851Z,9.78
2019-02-20T11:54:11.282Z,9.94
2019-02-20T11:56:59.146Z,10.08
2019-02-20T11:59:27.929Z,10.16
2019-02-20T12:01:56.362Z,10.27
2019-02-20T12:04:24.834Z,10.33
2019-02-20T12:07:12.582Z,10.43
2019-02-20T12:12:14.817Z,10.46
2019-02-20T12:14:43.243Z,10.54
2019-02-20T12:17:11.814Z,10.54
2019-02-20T12:19:40.314Z,10.75
2019-02-20T12:22:28.742Z,11.02
2019-02-20T12:24:59.264Z,11.19
2019-02-20T12:27:46.865Z,11.17
2019-02-20T12:30:55.219Z,11.31
2019-02-20T12:35:58.282Z,11.15
2019-02-20T12:38:26.853Z,11.47
2019-02-20T12:40:55.285Z,11.43
2019-02-20T12:43:23.717Z,11.39
2019-02-20T12:45:52.204Z,11.52
2019-02-20T12:48:20.609Z,11.43
2019-02-20T12:50:49.060Z,11.29
2019-02-20T12:53:17.544Z,11.23
2019-02-20T12:55:45.975Z,11.32
2019-02-20T12:58:14.512Z,11.30
2019-02-20T13:00:43.752Z,11.37
2019-02-20T13:03:12.340Z,11.51
2019-02-20T13:05:42.480Z,11.48
2019-02-20T13:08:11.144Z,11.40
2019-02-20T13:10:39.577Z,11.57
2019-02-20T13:13:08.684Z,11.60
2019-02-20T13:15:37.576Z,11.65
2019-02-20T13:18:06.145Z,11.72
2019-02-20T13:20:34.949Z,11.83
2019-02-20T13:23:03.405Z,11.95
2019-02-20T13:25:31.900Z,11.97
2019-02-20T13:28:07.715Z,12.19
2019-02-20T13:30:36.453Z,12.23
2019-02-20T13:33:04.888Z,12.16
2019-02-20T13:35:33.334Z,12.12
2019-02-20T13:38:01.832Z,12.20
2019-02-20T13:40:30.450Z,12.22
2019-02-20T13:42:59.164Z,12.27
2019-02-20T13:45:27.659Z,12.44
2019-02-20T13:47:56.088Z,12.36
2019-02-20T13:50:25.429Z,12.27
2019-02-20T13:52:54.217Z,11.93
2019-02-20T13:55:22.715Z,12.11
2019-02-20T13:57:51.243Z,11.92
2019-02-20T14:00:19.852Z,12.06
2019-02-20T14:02:48.281Z,12.08
2019-02-20T14:05:16.850Z,12.12
2019-02-20T14:07:45.365Z,12.24
2019-02-20T14:10:14.306Z,12.25
2019-02-20T14:12:42.941Z,12.26
2019-02-20T14:15:12.578Z,12.17
2019-02-20T14:17:41.006Z,12.01
2019-02-20T14:20:11.852Z,12.05
2019-02-20T14:22:40.716Z,11.89
2019-02-20T14:25:10.586Z,12.06
2019-02-20T14:27:39.138Z,12.06
2019-02-20T14:30:11.886Z,12.13
2019-02-20T14:32:40.384Z,12.10
2019-02-20T14:35:15.054Z,12.41
2019-02-20T14:37:43.635Z,12.15
2019-02-20T14:40:12.132Z,12.49
2019-02-20T14:42:40.943Z,12.40
2019-02-20T14:45:15.320Z,12.35
2019-02-20T14:47:43.989Z,12.18
2019-02-20T14:50:13.073Z,12.32
2019-02-20T14:52:42.423Z,12.29
2019-02-20T14:55:11.594Z,12.29
2019-02-20T14:57:40.046Z,12.39
2019-02-20T15:00:13.791Z,12.42
2019-02-20T15:02:42.512Z,12.40
2019-02-20T15:05:12.041Z,12.23
2019-02-20T15:07:40.662Z,12.39
2019-02-20T15:10:10.186Z,12.59
2019-02-20T15:12:39.204Z,12.61
2019-02-20T15:15:13.329Z,12.53
2019-02-20T15:17:41.760Z,12.57
2019-02-20T15:20:11.364Z,12.48
2019-02-20T15:22:39.986Z,12.28
2019-02-20T15:25:09.487Z,12.43
2019-02-20T15:27:38.444Z,12.32
2019-02-20T15:30:12.948Z,12.36
2019-02-20T15:32:41.420Z,12.32
2019-02-20T15:35:10.131Z,12.32
2019-02-20T15:37:38.863Z,12.38
2019-02-20T15:40:09.335Z,12.22
2019-02-20T15:42:38.237Z,12.16
2019-02-20T15:45:09.000Z,12.11
2019-02-20T15:47:37.515Z,12.19
2019-02-20T15:50:12.139Z,11.98
2019-02-20T15:52:40.912Z,11.94
2019-02-20T15:55:11.518Z,11.96
2019-02-20T15:57:40.041Z,11.91
2019-02-20T16:00:11.516Z,11.92
2019-02-20T16:02:40.052Z,11.83
2019-02-20T16:05:08.907Z,11.76
2019-02-20T16:07:37.429Z,11.71
2019-02-20T16:10:08.976Z,11.80
2019-02-20T16:12:37.420Z,11.89
2019-02-20T16:15:08.710Z,11.74
2019-02-20T16:17:37.149Z,11.70
2019-02-20T16:20:09.058Z,11.61
2019-02-20T16:22:37.825Z,11.52
2019-02-20T16:25:09.455Z,11.59
2019-02-20T16:27:46.475Z,11.57
2019-02-20T16:30:13.455Z,11.54
2019-02-20T16:32:42.624Z,11.50
2019-02-20T16:35:12.019Z,11.53
2019-02-20T16:37:40.605Z,11.38
2019-02-20T16:40:14.349Z,11.27
2019-02-20T16:42:43.102Z,11.17
2019-02-20T16:45:23.924Z,11.08
2019-02-20T16:47:52.972Z,11.11
2019-02-20T16:50:21.465Z,11.08
2019-02-20T16:52:50.016Z,10.95
2019-02-20T16:55:19.874Z,10.90
2019-02-20T16:57:56.193Z,10.85
2019-02-20T17:00:21.762Z,10.82
2019-02-20T17:02:50.547Z,10.79
2019-02-20T17:05:19.403Z,10.74
2019-02-20T17:07:48.497Z,10.68
2019-02-20T17:10:17.628Z,10.70
2019-02-20T17:12:46.200Z,10.69
2019-02-20T17:15:16.496Z,10.54
2019-02-20T17:17:45.287Z,10.57
2019-02-20T17:20:17.769Z,10.55
2019-02-20T17:22:46.647Z,10.43
2019-02-20T17:25:15.965Z,10.32
2019-02-20T17:27:44.768Z,10.28
2019-02-20T17:30:17.883Z,10.22
2019-02-20T17:32:46.740Z,10.14
2019-02-20T17:35:17.159Z,10.09
2019-02-20T17:37:46.144Z,9.97
2019-02-20T17:40:15.409Z,9.90
2019-02-20T17:42:43.965Z,9.83
2019-02-20T17:45:15.085Z,9.82
2019-02-20T17:47:43.867Z,9.76
2019-02-20T17:50:14.976Z,9.56
2019-02-20T17:52:43.790Z,9.42
2019-02-20T17:55:13.253Z,9.03
2019-02-20T17:57:41.676Z,8.77
2019-02-20T18:00:16.591Z,8.45
2019-02-20T18:02:45.039Z,8.11
2019-02-20T18:05:13.948Z,7.93
2019-02-20T18:07:48.803Z,7.52
2019-02-20T18:10:13.197Z,7.60
2019-02-20T18:12:41.615Z,7.41
2019-02-20T18:15:12.633Z,7.15
2019-02-20T18:17:41.064Z,6.97
2019-02-20T18:20:11.016Z,6.93
2019-02-20T18:22:39.498Z,6.63
2019-02-20T18:25:09.969Z,6.83
2019-02-20T18:27:38.521Z,7.01
2019-02-20T18:30:10.271Z,7.06
2019-02-20T18:32:39.052Z,7.29
2019-02-20T18:35:12.559Z,7.15
2019-02-20T18:37:41.094Z,6.91
2019-02-20T18:40:12.050Z,6.87
2019-02-20T18:42:40.477Z,6.78
2019-02-20T18:45:11.690Z,6.53
2019-02-20T18:47:40.104Z,6.43
2019-02-20T18:50:11.203Z,6.33
2019-02-20T18:52:39.667Z,6.15
2019-02-20T18:55:12.384Z,5.99
2019-02-20T18:57:41.254Z,6.02
2019-02-20T19:00:13.102Z,5.84
2019-02-20T19:02:41.511Z,5.67
2019-02-20T19:05:10.865Z,5.83
2019-02-20T19:07:39.430Z,5.72
2019-02-20T19:10:20.062Z,5.79
2019-02-20T19:13:03.662Z,5.60
2019-02-20T19:15:35.157Z,5.48
2019-02-20T19:18:29.352Z,5.38
2019-02-20T19:21:16.281Z,5.30
2019-02-20T19:23:56.686Z,5.08
2019-02-20T19:26:28.153Z,4.98
2019-02-20T19:29:08.719Z,4.82
2019-02-20T19:32:07.328Z,4.73
2019-02-20T19:34:53.642Z,4.75
2019-02-20T19:37:31.702Z,4.63
2019-02-20T19:40:18.070Z,4.51
2019-02-20T19:43:07.455Z,4.42
2019-02-20T19:46:10.619Z,4.50
2019-02-20T19:48:47.195Z,4.64
2019-02-20T19:51:35.348Z,4.93
2019-02-20T19:54:23.252Z,4.86
2019-02-20T19:57:03.598Z,4.62
2019-02-20T19:59:37.973Z,4.40
2019-02-20T20:02:27.796Z,4.45
2019-02-20T20:05:03.662Z,4.19
2019-02-20T20:07:53.252Z,4.00
2019-02-20T20:10:44.361Z,3.84
2019-02-20T20:13:34.336Z,3.58
2019-02-20T20:16:25.566Z,3.48
2019-02-20T20:19:03.160Z,3.45
2019-02-20T20:21:43.885Z,3.45
2019-02-20T20:24:18.122Z,3.28
2019-02-20T20:27:13.651Z,3.23
2019-02-20T20:30:00.167Z,3.20
2019-02-20T20:32:34.668Z,3.28
2019-02-20T20:35:21.481Z,3.20
2019-02-20T20:38:20.551Z,3.11
2019-02-20T20:41:01.511Z,3.07
2019-02-20T20:43:33.427Z,2.88
2019-02-20T20:46:04.984Z,2.94
2019-02-20T20:48:45.795Z,2.98
2019-02-20T20:51:18.305Z,2.88
2019-02-20T20:54:06.301Z,2.73
2019-02-20T20:56:57.380Z,2.63
2019-02-20T20:59:41.234Z,2.53
2019-02-20T21:02:21.867Z,2.53
2019-02-20T21:05:10.760Z,2.48
2019-02-20T21:07:45.144Z,2.36
2019-02-20T21:10:16.664Z,2.42
2019-02-20T21:12:57.610Z,2.30
2019-02-20T21:15:56.172Z,2.29
2019-02-20T21:18:39.608Z,2.19
2019-02-20T21:21:29.511Z,2.16
2019-02-20T21:24:06.992Z,2.16
2019-02-20T21:27:05.502Z,2.19
2019-02-20T21:29:52.280Z,1.97
2019-02-20T21:32:26.883Z,2.22
2019-02-20T21:35:01.253Z,2.13
2019-02-20T21:37:53.909Z,2.01
2019-02-20T21:40:48.296Z,1.93
2019-02-20T21:43:54.741Z,2.07
2019-02-20T21:46:45.210Z,1.88
2019-02-20T21:49:33.249Z,1.66
2019-02-20T21:52:36.454Z,1.71
2019-02-20T21:55:37.738Z,2.01
2019-02-20T21:58:12.040Z,1.91
2019-02-20T22:01:06.303Z,2.02
2019-02-20T22:04:00.598Z,1.75
2019-02-20T22:06:34.823Z,1.83
2019-02-20T22:09:26.523Z,1.97
2019-02-20T22:12:16.161Z,1.82
2019-02-20T22:14:56.210Z,1.78
2019-02-20T22:17:30.612Z,1.68
2019-02-20T22:20:19.019Z,1.64
2019-02-20T22:22:53.422Z,1.82
2019-02-20T22:25:36.768Z,1.67
2019-02-20T22:28:26.370Z,1.82
2019-02-20T22:31:00.810Z,1.68
2019-02-20T22:33:44.477Z,1.63
2019-02-20T22:36:19.458Z,1.47
2019-02-20T22:39:04.029Z,1.55
2019-02-20T22:42:04.268Z,1.39
2019-02-20T22:44:41.481Z,1.39
2019-02-20T22:47:18.710Z,1.95
2019-02-20T22:50:24.793Z,1.75
2019-02-20T22:52:59.023Z,1.56
2019-02-20T22:55:56.483Z,1.53
2019-02-20T22:58:46.097Z,1.40
2019-02-20T23:01:26.431Z,1.55
2019-02-20T23:04:12.790Z,1.37
2019-02-20T23:06:50.092Z,1.27
2019-02-20T23:09:42.944Z,1.19
2019-02-20T23:12:43.392Z,1.23
2019-02-20T23:15:12.072Z,1.08
2019-02-20T23:17:40.537Z,1.03
2019-02-20T23:20:09.229Z,0.91
2019-02-20T23:22:37.688Z,0.90
2019-02-20T23:25:06.844Z,0.85
2019-02-20T23:27:35.555Z,0.86
2019-02-20T23:30:12.557Z,0.83
2019-02-20T23:32:35.935Z,0.83
2019-02-20T23:35:04.805Z,0.79
2019-02-20T23:37:33.340Z,0.90
2019-02-20T23:40:01.773Z,0.96
2019-02-20T23:42:30.445Z,0.87
2019-02-20T23:44:58.902Z,0.92
2019-02-20T23:47:27.327Z,0.87
2019-02-20T23:49:56.524Z,0.77
2019-02-20T23:52:25.272Z,0.61
2019-02-20T23:54:53.805Z,0.68
2019-02-20T23:57:22.236Z,0.80
2019-02-20T23:59:51.038Z,0.72
